Hlavní strana
METAR-TAF:

METAR-TAF

Letiště :

Asheville, Severní Karolína, Spojené státy americké

zeměpisná šířka: 35-25-55N, zeměpisná délka: 082-32-15W, výška: 660 m

Aktuální stav počasí

Zpráva byla vytvořena před 17 minutami, v 18:54 UTC
Severní vítr 7 kt
Teplota 13°C
Vlhkost vzduchu 33%
Tlak 1020 hPa
Viditelnost: 16.1 km
Jasno

METAR: KAVL 151854Z 35007KT 10SM CLR 13/M03 A3011 RMK AO2 SLP192 T01281033

Čas: 14:11 (19:11 UTC)

Předpověď počasí

Zpráva byla vytvořena před 1 hodinou a 36 minutami, v 17:35 UTC
Předpověď platná od 15 v 18 UTC do 16 v 18 UTC
Severoseverozápadní vítr 9 kt
Viditelnost: 10 km
Polojasno ve výšce 10000 ft
Oblačno až skoro zataženo ve výšce 25000 ft
Od 16 v 0500 UTC
Severoseverozápadní vítr 7 kt
Viditelnost: 10 km
Oblačno až skoro zataženo ve výšce 20000 ft
Od 16 v 1100 UTC
Severní vítr 6 kt
Viditelnost: 10 km
Polojasno ve výšce 20000 ft

TAF: KAVL 151735Z 1518/1618 34009KT P6SM SCT100 BKN250 FM160500 34007KT P6SM BKN200 FM161100 36006KT P6SM SCT200

Stav a předpovědi počasí z více než 4 000 letišť (zprávy METAR a TAF).

Červené a žluté tečky na mapě představují dostupné meteorologické stanice.

Když kurzor umístíte na tečku, zobrazí se název stanice.

Pak kliknutím zobrazíte stav a předpověď počasí.

Chcete-li změnit mapu, kliknutím na zelené tlačítko se znaménkem +mapu přiblížíte, kliknutím na zelené tlačítko se znaménkem – mapu oddálíte a kliknutím na zelené šipky přejdete na sousední mapy.


METAR-TAF: